POGODA: Poland

Lotnisko: Gdansk-Rebiechowo

METAR KOD: EPGD


METAR: EPGD 301030Z 18008KT 110V230 CAVOK 29/14 Q1007


BLOK
Pogoda METAR
301030Z
Dzien: 30, Godzina: 10:30 UTC.
18008KT
Wiatr z kierunku 180, o predkosci 15 km/h
110V230
Wiatr zmienny pomiedzy 110 i 230
CAVOK
Widzialnosc pow. 10 km, brak chmur pon. 1500 m., brak CB, brak opadow, burz i innych
29/14
Temperatura: powietrze 29°C, punkt rosy 14°C . Wilgotnosc wzgledna 48 %
Q1007
Cisnienie: 1007 hPa

Pogoda na innym lotnisku

Pogoda Gdansk-Rebiechowo WEATHER Poland  
Pogoda Katowice WEATHER Poland  
Pogoda Krakow WEATHER Poland  
Pogoda Poznan WEATHER Poland  
Pogoda Rzeszow-Jasionka WEATHER Poland  
Pogoda Szczecin WEATHER Poland  
Pogoda Warszawa-Okecie WEATHER Poland  
Pogoda Wroclaw Ii WEATHER Poland  

Pogoda w inny kraju

Strona startowa

(C) by GREGOR 2007
Ogłoszenia Towarzyskie